createdAt,value
2023-05-10T00:01:37.630Z,75.90
2023-05-10T00:04:30.441Z,75.99
2023-05-10T00:07:23.099Z,75.89
2023-05-10T00:10:07.663Z,75.97
2023-05-10T00:13:00.705Z,75.95
2023-05-10T00:15:53.459Z,76.03
2023-05-10T00:18:36.049Z,76.01
2023-05-10T00:21:29.398Z,76.11
2023-05-10T00:24:16.103Z,76.20
2023-05-10T00:27:01.737Z,76.30
2023-05-10T00:29:54.556Z,76.60
2023-05-10T00:32:49.328Z,76.84
2023-05-10T00:35:42.053Z,77.31
2023-05-10T00:38:34.856Z,77.47
2023-05-10T00:41:28.155Z,77.62
2023-05-10T00:44:21.073Z,77.78
2023-05-10T00:47:14.484Z,77.83
2023-05-10T00:50:07.666Z,78.12
2023-05-10T00:53:01.985Z,78.33
2023-05-10T00:55:46.660Z,78.24
2023-05-10T00:58:40.906Z,78.20
2023-05-10T01:01:27.603Z,78.29
2023-05-10T01:04:21.321Z,78.47
2023-05-10T01:07:07.444Z,78.93
2023-05-10T01:09:47.470Z,79.03
2023-05-10T01:12:45.252Z,78.94
2023-05-10T01:15:39.053Z,78.98
2023-05-10T01:18:27.088Z,79.02
2023-05-10T01:21:25.825Z,79.21
2023-05-10T01:25:02.911Z,79.40
2023-05-10T01:28:16.932Z,79.45
2023-05-10T01:31:25.464Z,79.48
2023-05-10T01:34:29.665Z,79.78
2023-05-10T01:37:27.775Z,80.10
2023-05-10T01:40:28.581Z,80.31
2023-05-10T01:43:25.392Z,80.07
2023-05-10T01:46:23.349Z,80.23
2023-05-10T01:49:25.758Z,79.88
2023-05-10T01:52:22.236Z,80.00
2023-05-10T01:55:19.176Z,80.15
2023-05-10T01:58:12.424Z,80.32
2023-05-10T02:00:56.782Z,80.34
2023-05-10T02:03:44.084Z,80.65
2023-05-10T02:06:28.815Z,80.75
2023-05-10T02:09:02.750Z,80.85
2023-05-10T02:11:56.456Z,80.83
2023-05-10T02:14:49.964Z,81.31
2023-05-10T02:17:44.447Z,81.32
2023-05-10T02:20:38.584Z,81.34
2023-05-10T02:23:32.650Z,81.66
2023-05-10T02:26:16.228Z,81.88
2023-05-10T02:29:13.573Z,81.94
2023-05-10T02:32:02.525Z,81.89
2023-05-10T02:34:57.110Z,82.06
2023-05-10T02:37:51.038Z,82.02
2023-05-10T02:40:46.745Z,82.14
2023-05-10T02:43:40.634Z,82.25
2023-05-10T02:46:35.343Z,82.00
2023-05-10T02:49:28.460Z,82.14
2023-05-10T02:52:14.082Z,82.17
2023-05-10T02:55:11.680Z,82.13
2023-05-10T02:58:05.583Z,82.01
2023-05-10T03:00:57.967Z,82.15
2023-05-10T03:03:54.051Z,82.13
2023-05-10T03:06:47.286Z,82.07
2023-05-10T03:09:40.378Z,82.21
2023-05-10T03:12:49.578Z,81.95
2023-05-10T03:15:50.315Z,82.01
2023-05-10T03:18:47.099Z,82.09
2023-05-10T03:21:44.295Z,82.02
2023-05-10T03:24:41.358Z,82.15
2023-05-10T03:27:36.446Z,82.37
2023-05-10T03:30:22.810Z,82.50
2023-05-10T03:33:15.639Z,82.44
2023-05-10T03:36:09.103Z,82.42
2023-05-10T03:39:03.900Z,82.62
2023-05-10T03:41:56.737Z,82.45
2023-05-10T03:44:50.258Z,82.44
2023-05-10T03:47:25.506Z,82.45
2023-05-10T03:50:20.265Z,82.33
2023-05-10T03:53:13.405Z,82.44
2023-05-10T03:56:07.587Z,82.65
2023-05-10T03:59:00.539Z,82.48
2023-05-10T04:01:53.538Z,82.57
2023-05-10T04:04:46.554Z,82.31
2023-05-10T04:07:39.936Z,82.12
2023-05-10T04:10:32.504Z,81.93
2023-05-10T04:13:29.006Z,81.76
2023-05-10T04:16:20.807Z,81.70
2023-05-10T04:19:16.066Z,81.54
2023-05-10T04:22:09.673Z,81.33
2023-05-10T04:25:01.584Z,81.06
2023-05-10T04:27:54.483Z,80.79
2023-05-10T04:30:39.966Z,80.65
2023-05-10T04:33:32.817Z,80.44
2023-05-10T04:36:26.526Z,79.39
2023-05-10T04:39:05.039Z,77.88
2023-05-10T04:41:57.576Z,76.61
2023-05-10T04:44:50.309Z,74.88
2023-05-10T04:47:42.935Z,73.09
2023-05-10T04:50:22.308Z,71.90
2023-05-10T04:53:15.990Z,69.85
2023-05-10T04:56:11.006Z,67.78
2023-05-10T04:59:03.831Z,66.57
2023-05-10T05:01:41.706Z,65.12
2023-05-10T05:04:35.251Z,62.39
2023-05-10T05:07:28.203Z,61.70
2023-05-10T05:10:21.116Z,61.36
2023-05-10T05:13:04.761Z,61.65
2023-05-10T05:15:58.520Z,62.18
2023-05-10T05:18:51.237Z,62.73
2023-05-10T05:21:44.571Z,62.84
2023-05-10T05:24:20.165Z,62.74
2023-05-10T05:27:13.244Z,63.15
2023-05-10T05:30:07.005Z,63.28
2023-05-10T05:32:59.900Z,63.23
2023-05-10T05:35:52.814Z,63.75
2023-05-10T05:38:35.341Z,63.70
2023-05-10T05:41:28.013Z,63.21
2023-05-10T05:44:13.216Z,63.55
2023-05-10T05:47:08.346Z,63.67
2023-05-10T05:49:59.715Z,63.35
2023-05-10T05:52:52.550Z,63.14
2023-05-10T05:56:06.206Z,62.86
2023-05-10T05:58:59.056Z,62.53
2023-05-10T06:01:53.160Z,62.15
2023-05-10T06:04:49.048Z,62.40
2023-05-10T06:07:45.110Z,61.45
2023-05-10T06:10:37.942Z,59.44
2023-05-10T06:13:33.845Z,58.77
2023-05-10T06:16:12.284Z,57.58
2023-05-10T06:19:05.368Z,57.64
2023-05-10T06:21:58.627Z,56.60
2023-05-10T06:24:34.319Z,56.37
2023-05-10T06:27:10.291Z,55.97
2023-05-10T06:29:56.475Z,54.97
2023-05-10T06:32:37.239Z,53.66
2023-05-10T06:35:32.487Z,54.16
2023-05-10T06:38:25.363Z,53.58
2023-05-10T06:41:18.574Z,52.63
2023-05-10T06:44:11.657Z,53.02
2023-05-10T06:47:05.933Z,53.51
2023-05-10T06:49:58.751Z,52.50
2023-05-10T06:52:41.451Z,50.37
2023-05-10T06:55:24.948Z,49.77
2023-05-10T06:58:00.478Z,50.22
2023-05-10T07:00:46.700Z,50.88
2023-05-10T07:03:29.139Z,50.30
2023-05-10T07:06:32.423Z,49.38
2023-05-10T07:09:26.722Z,49.06
2023-05-10T07:12:19.716Z,48.99
2023-05-10T07:15:13.774Z,49.58
2023-05-10T07:18:08.275Z,49.10
2023-05-10T07:21:01.032Z,49.09
2023-05-10T07:23:45.291Z,48.65
2023-05-10T07:26:38.409Z,48.45
2023-05-10T07:29:31.322Z,48.38
2023-05-10T07:32:24.757Z,48.97
2023-05-10T07:35:18.082Z,48.39
2023-05-10T07:37:50.780Z,47.90
2023-05-10T07:40:33.976Z,48.80
2023-05-10T07:43:18.996Z,47.42
2023-05-10T07:46:04.988Z,46.36
2023-05-10T07:48:57.690Z,45.63
2023-05-10T07:51:51.729Z,44.66
2023-05-10T07:54:44.653Z,44.79
2023-05-10T07:57:38.488Z,45.39
2023-05-10T08:00:23.226Z,44.34
2023-05-10T08:03:01.137Z,42.75
2023-05-10T08:05:35.704Z,43.82
2023-05-10T08:08:28.687Z,42.08
2023-05-10T08:11:22.563Z,42.90
2023-05-10T08:14:35.172Z,41.67
2023-05-10T08:17:28.636Z,43.44
2023-05-10T08:20:21.939Z,42.24
2023-05-10T08:23:18.360Z,41.97
2023-05-10T08:26:11.272Z,41.63
2023-05-10T08:29:05.125Z,42.59
2023-05-10T08:31:58.086Z,42.19
2023-05-10T08:34:53.319Z,41.54
2023-05-10T08:37:45.176Z,42.59
2023-05-10T08:40:39.148Z,41.71
2023-05-10T08:43:33.995Z,41.26
2023-05-10T08:46:28.816Z,41.54
2023-05-10T08:49:23.976Z,41.75
2023-05-10T08:52:10.036Z,41.19
2023-05-10T08:55:03.054Z,40.30
2023-05-10T08:57:58.087Z,40.05
2023-05-10T09:00:51.917Z,40.28
2023-05-10T09:03:45.685Z,41.05
2023-05-10T09:06:39.053Z,39.89
2023-05-10T09:09:32.393Z,38.69
2023-05-10T09:12:05.873Z,38.61
2023-05-10T09:14:52.966Z,38.55
2023-05-10T09:17:30.592Z,37.32
2023-05-10T09:20:23.645Z,37.86
2023-05-10T09:23:17.099Z,38.18
2023-05-10T09:26:10.173Z,38.11
2023-05-10T09:29:06.089Z,37.38
2023-05-10T09:31:58.767Z,37.77
2023-05-10T09:34:53.495Z,37.27
2023-05-10T09:37:50.735Z,37.21
2023-05-10T09:40:55.566Z,37.61
2023-05-10T09:43:48.670Z,37.60
2023-05-10T09:46:41.426Z,36.84
2023-05-10T09:49:24.587Z,36.39
2023-05-10T09:52:17.569Z,37.54
2023-05-10T09:55:00.408Z,36.74
2023-05-10T09:57:35.161Z,35.99
2023-05-10T10:00:13.595Z,36.30
2023-05-10T10:02:47.229Z,36.72
2023-05-10T10:05:33.876Z,36.86
2023-05-10T10:08:07.730Z,36.40
2023-05-10T10:10:41.508Z,37.18
2023-05-10T10:13:35.604Z,36.41
2023-05-10T10:16:12.280Z,36.09
2023-05-10T10:18:47.561Z,35.79
2023-05-10T10:21:24.024Z,36.17
2023-05-10T10:23:57.034Z,36.89
2023-05-10T10:26:32.907Z,36.27
2023-05-10T10:29:19.469Z,35.12
2023-05-10T10:31:59.982Z,34.42
2023-05-10T10:34:33.655Z,36.16
2023-05-10T10:37:09.964Z,36.00
2023-05-10T10:39:42.661Z,34.73
2023-05-10T10:42:37.878Z,33.83
2023-05-10T10:45:20.521Z,34.49
2023-05-10T10:48:27.463Z,33.45
2023-05-10T10:51:21.270Z,34.78
2023-05-10T10:54:13.568Z,34.74
2023-05-10T10:57:17.180Z,34.59
2023-05-10T11:00:32.163Z,34.77
2023-05-10T11:03:26.543Z,34.16
2023-05-10T11:06:34.729Z,34.65
2023-05-10T11:09:28.693Z,34.58
2023-05-10T11:12:22.125Z,34.11
2023-05-10T11:15:15.147Z,34.86
2023-05-10T11:18:21.788Z,34.46
2023-05-10T11:21:13.082Z,33.33
2023-05-10T11:24:19.515Z,32.91
2023-05-10T11:27:15.553Z,33.54
2023-05-10T11:30:12.392Z,33.79
2023-05-10T11:32:58.291Z,33.48
2023-05-10T11:35:51.578Z,32.96
2023-05-10T11:38:45.174Z,32.71
2023-05-10T11:41:36.672Z,33.02
2023-05-10T11:44:33.654Z,33.79
2023-05-10T11:47:26.593Z,32.64
2023-05-10T11:50:19.918Z,33.61
2023-05-10T11:53:03.116Z,34.28
2023-05-10T11:55:56.690Z,34.49
2023-05-10T11:58:43.033Z,33.14
2023-05-10T12:01:36.210Z,34.05
2023-05-10T12:04:30.634Z,32.85
2023-05-10T12:07:23.586Z,32.83
2023-05-10T12:10:19.223Z,33.47
2023-05-10T12:13:17.152Z,33.10
2023-05-10T12:16:19.009Z,33.88
2023-05-10T12:19:11.947Z,34.23
2023-05-10T12:22:08.806Z,34.40
2023-05-10T12:25:02.830Z,34.97
2023-05-10T12:27:39.101Z,34.94
2023-05-10T12:30:33.324Z,34.42
2023-05-10T12:33:10.801Z,33.89
2023-05-10T12:36:04.808Z,33.17
2023-05-10T12:39:20.107Z,33.28
2023-05-10T12:42:13.395Z,34.38
2023-05-10T12:45:01.080Z,34.71
2023-05-10T12:47:54.131Z,34.33
2023-05-10T12:50:46.905Z,34.02
2023-05-10T12:53:41.493Z,34.37
2023-05-10T12:56:36.245Z,32.89
2023-05-10T12:59:28.964Z,32.06
2023-05-10T13:02:23.478Z,32.57
2023-05-10T13:05:16.558Z,33.06
2023-05-10T13:08:11.037Z,31.46
2023-05-10T13:11:05.298Z,31.56
2023-05-10T13:13:59.430Z,32.23
2023-05-10T13:16:52.195Z,31.72
2023-05-10T13:19:47.798Z,32.03
2023-05-10T13:22:40.885Z,31.81
2023-05-10T13:25:36.091Z,31.65
2023-05-10T13:28:28.813Z,30.85
2023-05-10T13:31:23.967Z,31.40
2023-05-10T13:34:16.590Z,30.50
2023-05-10T13:37:11.637Z,30.19
2023-05-10T13:40:05.264Z,30.24
2023-05-10T13:42:59.092Z,30.19
2023-05-10T13:45:52.359Z,29.88
2023-05-10T13:48:39.079Z,29.67
2023-05-10T13:51:32.696Z,31.21
2023-05-10T13:54:26.393Z,30.72
2023-05-10T13:57:13.959Z,29.94
2023-05-10T14:00:07.996Z,30.76
2023-05-10T14:02:53.769Z,30.26
2023-05-10T14:05:39.600Z,30.12
2023-05-10T14:08:12.060Z,30.25
2023-05-10T14:11:05.052Z,30.47
2023-05-10T14:13:58.159Z,29.94
2023-05-10T14:16:51.265Z,29.85
2023-05-10T14:19:44.625Z,30.82
2023-05-10T14:22:37.815Z,30.34
2023-05-10T14:25:20.879Z,29.62
2023-05-10T14:28:14.434Z,30.27
2023-05-10T14:30:50.835Z,30.44
2023-05-10T14:33:43.951Z,30.34
2023-05-10T14:36:28.350Z,29.22
2023-05-10T14:39:21.289Z,30.23
2023-05-10T14:42:15.943Z,29.64
2023-05-10T14:44:58.478Z,29.90
2023-05-10T14:47:52.059Z,29.63
2023-05-10T14:50:36.519Z,29.54
2023-05-10T14:53:10.416Z,29.78
2023-05-10T14:55:43.605Z,30.17
2023-05-10T14:58:18.055Z,30.00
2023-05-10T15:00:50.734Z,30.35
2023-05-10T15:03:27.279Z,29.97
2023-05-10T15:06:11.961Z,29.69
2023-05-10T15:09:05.631Z,29.69
2023-05-10T15:11:48.312Z,30.28
2023-05-10T15:14:41.542Z,31.38
2023-05-10T15:17:34.985Z,30.07
2023-05-10T15:20:27.845Z,29.66
2023-05-10T15:23:07.788Z,30.15
2023-05-10T15:26:01.692Z,30.56
2023-05-10T15:28:47.422Z,29.88
2023-05-10T15:31:30.256Z,30.61
2023-05-10T15:34:03.240Z,30.68
2023-05-10T15:36:37.099Z,30.80
2023-05-10T15:39:15.035Z,32.03
2023-05-10T15:41:57.029Z,31.08
2023-05-10T15:44:51.332Z,30.95
2023-05-10T15:47:24.243Z,30.48
2023-05-10T15:50:18.160Z,30.63
2023-05-10T15:53:10.908Z,30.28
2023-05-10T15:55:43.200Z,30.88
2023-05-10T15:58:38.581Z,30.43
2023-05-10T16:01:21.436Z,30.81
2023-05-10T16:03:56.502Z,31.45
2023-05-10T16:06:50.736Z,31.26
2023-05-10T16:09:44.076Z,31.98
2023-05-10T16:12:26.085Z,31.41
2023-05-10T16:15:13.611Z,31.01
2023-05-10T16:17:49.627Z,30.44
2023-05-10T16:20:45.749Z,29.51
2023-05-10T16:23:18.436Z,29.86
2023-05-10T16:25:54.782Z,29.41
2023-05-10T16:28:27.398Z,29.22
2023-05-10T16:31:20.899Z,29.13
2023-05-10T16:33:53.725Z,28.86
2023-05-10T16:36:40.663Z,28.66
2023-05-10T16:39:24.474Z,28.40
2023-05-10T16:42:17.636Z,28.63
2023-05-10T16:44:50.985Z,29.14
2023-05-10T16:47:44.558Z,28.55
2023-05-10T16:50:31.326Z,28.23
2023-05-10T16:53:05.985Z,28.29
2023-05-10T16:55:47.857Z,28.03
2023-05-10T16:58:40.710Z,28.81
2023-05-10T17:01:13.572Z,29.47
2023-05-10T17:03:49.164Z,29.03
2023-05-10T17:06:42.192Z,28.92
2023-05-10T17:09:35.059Z,29.50
2023-05-10T17:12:11.280Z,30.24
2023-05-10T17:14:47.030Z,30.85
2023-05-10T17:17:39.786Z,31.49
2023-05-10T17:20:32.548Z,32.21
2023-05-10T17:23:10.652Z,32.84
2023-05-10T17:25:46.576Z,33.75
2023-05-10T17:28:22.248Z,34.13
2023-05-10T17:31:15.003Z,34.65
2023-05-10T17:34:03.375Z,35.27
2023-05-10T17:36:49.339Z,35.73
2023-05-10T17:39:26.020Z,35.90
2023-05-10T17:42:26.884Z,36.72
2023-05-10T17:45:20.818Z,37.01
2023-05-10T17:48:13.556Z,37.71
2023-05-10T17:50:56.508Z,37.82
2023-05-10T17:53:49.455Z,38.33
2023-05-10T17:56:31.862Z,38.78
2023-05-10T17:59:24.642Z,39.51
2023-05-10T18:01:59.725Z,39.77
2023-05-10T18:04:35.105Z,40.18
2023-05-10T18:07:08.067Z,40.83
2023-05-10T18:09:51.404Z,41.02
2023-05-10T18:12:44.493Z,41.62
2023-05-10T18:15:37.726Z,42.01
2023-05-10T18:18:30.646Z,42.54
2023-05-10T18:21:05.389Z,42.96
2023-05-10T18:23:58.287Z,43.42
2023-05-10T18:26:33.889Z,43.60
2023-05-10T18:29:26.913Z,44.07
2023-05-10T18:32:10.244Z,44.47
2023-05-10T18:34:54.961Z,44.75
2023-05-10T18:37:48.713Z,45.32
2023-05-10T18:40:21.457Z,45.58
2023-05-10T18:43:04.003Z,46.04
2023-05-10T18:45:48.748Z,46.40
2023-05-10T18:48:41.896Z,46.84
2023-05-10T18:51:15.333Z,47.35
2023-05-10T18:53:50.757Z,47.98
2023-05-10T18:56:45.262Z,48.50
2023-05-10T18:59:30.090Z,48.78
2023-05-10T19:02:03.171Z,48.96
2023-05-10T19:04:59.699Z,49.69
2023-05-10T19:07:35.024Z,50.02
2023-05-10T19:10:17.596Z,50.96
2023-05-10T19:13:03.124Z,51.20
2023-05-10T19:15:40.572Z,51.86
2023-05-10T19:18:34.021Z,51.87
2023-05-10T19:21:10.983Z,52.29
2023-05-10T19:23:49.087Z,52.87
2023-05-10T19:26:31.752Z,52.92
2023-05-10T19:29:24.360Z,53.31
2023-05-10T19:32:17.503Z,53.38
2023-05-10T19:35:00.602Z,53.69
2023-05-10T19:37:39.080Z,53.85
2023-05-10T19:40:31.972Z,54.11
2023-05-10T19:43:09.788Z,54.45
2023-05-10T19:45:46.303Z,54.48
2023-05-10T19:48:29.575Z,54.72
2023-05-10T19:51:15.255Z,55.05
2023-05-10T19:54:08.478Z,54.86
2023-05-10T19:57:01.260Z,55.33
2023-05-10T19:59:44.032Z,55.40
2023-05-10T20:02:36.632Z,55.53
2023-05-10T20:05:30.308Z,55.88
2023-05-10T20:08:23.037Z,56.03
2023-05-10T20:11:16.781Z,56.19
2023-05-10T20:14:10.034Z,56.48
2023-05-10T20:17:02.994Z,56.73
2023-05-10T20:19:35.826Z,56.78
2023-05-10T20:22:14.494Z,56.91
2023-05-10T20:24:47.625Z,57.31
2023-05-10T20:27:40.808Z,57.57
2023-05-10T20:30:33.563Z,57.82
2023-05-10T20:33:19.208Z,58.10
2023-05-10T20:36:12.377Z,58.41
2023-05-10T20:39:05.516Z,58.69
2023-05-10T20:41:39.465Z,58.84
2023-05-10T20:44:32.014Z,58.97
2023-05-10T20:47:25.054Z,59.13
2023-05-10T20:50:18.387Z,59.61
2023-05-10T20:53:11.297Z,59.71
2023-05-10T20:56:04.345Z,59.79
2023-05-10T20:58:57.122Z,60.23
2023-05-10T21:01:50.176Z,60.17
2023-05-10T21:04:43.387Z,60.24
2023-05-10T21:07:36.241Z,60.35
2023-05-10T21:10:29.756Z,60.93
2023-05-10T21:13:12.597Z,61.12
2023-05-10T21:16:05.592Z,61.00
2023-05-10T21:18:58.709Z,61.11
2023-05-10T21:21:55.045Z,61.23
2023-05-10T21:24:48.442Z,61.40
2023-05-10T21:27:43.829Z,61.61
2023-05-10T21:30:36.660Z,61.80
2023-05-10T21:33:30.700Z,62.11
2023-05-10T21:36:23.644Z,62.38
2023-05-10T21:39:16.280Z,62.65
2023-05-10T21:42:00.349Z,62.59
2023-05-10T21:44:55.250Z,62.77
2023-05-10T21:47:48.386Z,62.70
2023-05-10T21:50:34.712Z,62.75
2023-05-10T21:53:11.311Z,62.88
2023-05-10T21:56:04.086Z,62.79
2023-05-10T21:58:40.155Z,62.85
2023-05-10T22:01:26.762Z,62.82
2023-05-10T22:04:19.834Z,63.30
2023-05-10T22:07:16.658Z,63.57
2023-05-10T22:09:59.364Z,63.56
2023-05-10T22:12:53.402Z,63.74
2023-05-10T22:15:46.090Z,64.21
2023-05-10T22:18:31.654Z,64.08
2023-05-10T22:21:24.956Z,64.06
2023-05-10T22:24:16.466Z,64.41
2023-05-10T22:27:09.345Z,64.62
2023-05-10T22:30:02.515Z,64.68
2023-05-10T22:32:56.202Z,64.79
2023-05-10T22:35:48.905Z,64.91
2023-05-10T22:38:32.652Z,64.97
2023-05-10T22:41:18.112Z,65.14
2023-05-10T22:44:12.849Z,65.30
2023-05-10T22:47:06.722Z,65.18
2023-05-10T22:50:03.347Z,65.25
2023-05-10T22:52:56.251Z,65.31
2023-05-10T22:55:49.896Z,65.55
2023-05-10T22:58:41.670Z,65.73
2023-05-10T23:01:37.261Z,65.85
2023-05-10T23:04:29.890Z,66.08
2023-05-10T23:07:24.109Z,66.27
2023-05-10T23:09:59.895Z,66.43
2023-05-10T23:12:52.522Z,66.63
2023-05-10T23:15:37.823Z,66.80
2023-05-10T23:18:31.009Z,67.07
2023-05-10T23:21:25.361Z,66.97
2023-05-10T23:24:18.143Z,67.07
2023-05-10T23:27:11.457Z,67.01
2023-05-10T23:30:04.536Z,66.90
2023-05-10T23:32:59.477Z,67.40
2023-05-10T23:35:43.605Z,67.62
2023-05-10T23:38:36.241Z,67.64
2023-05-10T23:41:28.793Z,67.63
2023-05-10T23:44:20.328Z,67.61
2023-05-10T23:47:13.263Z,67.64
2023-05-10T23:49:56.017Z,67.68
2023-05-10T23:52:49.749Z,68.14
2023-05-10T23:55:42.654Z,68.11
2023-05-10T23:58:34.986Z,68.10
